Terminal Aerodrome Forecast
Issued by NWS Kansas City/Pleasant Hill, MO

Home | Current Version | Previous Version | Text Only | Print | Product List | Glossary On
Versions: 1 2 3 4 5 6 7 8 9 10 11 12 13 14 15 16 17 18 19 20 21
000
FTUS43 KEAX 080520
TAFMCI
TAF
KMCI 080520Z 0806/0906 05007KT 5SM BR VCSH OVC040
     FM081200 05012KT 5SM -RA BR OVC008
     FM082000 04007KT P6SM BKN035=

USA.gov is the U.S. government's official web portal to all federal, state and local government web resources and services.